createdAt,value
2017-10-27T03:32:33.000Z,92.50
2017-10-27T03:35:01.343Z,93.50
2017-10-27T03:37:28.922Z,93.50
2017-10-27T03:39:56.903Z,93.20
2017-10-27T03:42:25.268Z,93.00
2017-10-27T03:44:52.874Z,92.90
2017-10-27T03:47:20.857Z,92.70
2017-10-27T03:49:48.436Z,92.60
2017-10-27T03:52:16.019Z,92.70
2017-10-27T03:54:43.600Z,92.50
2017-10-27T03:57:11.934Z,92.70
2017-10-27T03:59:40.283Z,92.40
2017-10-27T04:02:07.822Z,92.20
2017-10-27T04:04:35.410Z,92.10
2017-10-27T04:07:02.979Z,92.20
2017-10-27T04:09:30.586Z,92.00
2017-10-27T04:11:59.215Z,91.60
2017-10-27T04:14:26.763Z,91.60
2017-10-27T04:16:54.334Z,91.20
2017-10-27T04:19:21.895Z,91.60
2017-10-27T04:21:49.481Z,91.50
2017-10-27T04:24:17.101Z,91.90
2017-10-27T04:26:44.641Z,92.10
2017-10-27T04:29:12.944Z,92.20
2017-10-27T04:31:40.531Z,92.20
2017-10-27T04:34:08.089Z,92.10
2017-10-27T04:36:35.664Z,92.40
2017-10-27T04:39:03.203Z,91.90
2017-10-27T04:41:30.833Z,91.60
2017-10-27T04:43:58.399Z,91.60
2017-10-27T04:46:25.965Z,92.10
2017-10-27T04:48:53.563Z,91.90
2017-10-27T04:51:21.195Z,91.70
2017-10-27T04:53:48.762Z,92.10
2017-10-27T04:56:16.362Z,92.50
2017-10-27T04:58:44.692Z,92.40
2017-10-27T05:01:12.256Z,92.40
2017-10-27T05:03:39.833Z,92.20
2017-10-27T05:06:07.406Z,92.30
2017-10-27T05:08:34.984Z,92.20
2017-10-27T05:11:03.302Z,92.70
2017-10-27T05:13:30.864Z,92.60
2017-10-27T05:15:58.446Z,92.40
2017-10-27T05:18:31.693Z,92.10
2017-10-27T05:21:04.968Z,92.10
2017-10-27T05:23:38.913Z,92.20
2017-10-27T05:26:09.088Z,92.20
2017-10-27T05:28:37.469Z,92.60
2017-10-27T05:31:05.073Z,92.50
2017-10-27T05:33:32.643Z,92.30
2017-10-27T05:36:00.196Z,92.10
2017-10-27T05:38:27.783Z,91.20
2017-10-27T05:40:55.414Z,91.70
2017-10-27T05:43:22.978Z,91.20
2017-10-27T05:45:51.310Z,91.10
2017-10-27T05:48:18.896Z,90.70
2017-10-27T05:50:46.483Z,90.60
2017-10-27T05:53:14.048Z,90.90
2017-10-27T05:55:41.603Z,91.10
2017-10-27T05:58:09.161Z,91.50
2017-10-27T06:00:36.703Z,92.40
2017-10-27T06:03:04.289Z,93.00
2017-10-27T06:05:31.836Z,92.90
2017-10-27T06:07:59.391Z,93.30
2017-10-27T06:10:26.969Z,93.60
2017-10-27T06:12:54.519Z,93.90
2017-10-27T06:15:22.096Z,94.10
2017-10-27T06:17:49.651Z,94.40
2017-10-27T06:20:17.204Z,95.10
2017-10-27T06:22:44.774Z,95.00
2017-10-27T06:25:12.307Z,95.70
2017-10-27T06:27:39.899Z,93.00
2017-10-27T06:30:07.444Z,92.40
2017-10-27T06:32:35.763Z,90.70
2017-10-27T06:35:03.320Z,90.70
2017-10-27T06:37:31.624Z,90.80
2017-10-27T06:39:59.217Z,90.70
2017-10-27T06:42:26.778Z,90.80
2017-10-27T06:44:54.333Z,91.00
2017-10-27T06:47:21.892Z,91.10
2017-10-27T06:49:49.506Z,90.80
2017-10-27T06:52:17.858Z,90.60
2017-10-27T06:54:45.407Z,90.50
2017-10-27T06:57:12.951Z,90.40
2017-10-27T06:59:40.619Z,90.10
2017-10-27T07:02:08.931Z,90.00
2017-10-27T07:04:37.260Z,90.20
2017-10-27T07:07:04.825Z,90.20
2017-10-27T07:09:32.375Z,90.20
2017-10-27T07:11:59.922Z,90.70
2017-10-27T07:14:27.472Z,90.40
2017-10-27T07:16:55.012Z,90.50
2017-10-27T07:19:23.351Z,90.60
2017-10-27T07:21:50.894Z,90.60
2017-10-27T07:24:18.473Z,90.60
2017-10-27T07:26:46.007Z,91.00
2017-10-27T07:29:13.544Z,90.70
2017-10-27T07:31:41.100Z,91.00
2017-10-27T07:34:08.637Z,90.70
2017-10-27T07:36:36.963Z,89.60
2017-10-27T07:39:04.558Z,89.60
2017-10-27T07:41:32.099Z,90.10
2017-10-27T07:43:59.659Z,90.20
2017-10-27T07:46:27.187Z,90.20
2017-10-27T07:48:54.759Z,90.10
2017-10-27T07:51:22.307Z,90.10
2017-10-27T07:53:49.881Z,89.70
2017-10-27T07:56:17.487Z,89.80
2017-10-27T07:58:45.799Z,88.80
2017-10-27T08:01:13.364Z,88.80
2017-10-27T08:03:40.890Z,88.60
2017-10-27T08:06:09.197Z,88.80
2017-10-27T08:08:36.765Z,88.80
2017-10-27T08:11:04.320Z,88.80
2017-10-27T08:13:31.901Z,88.60
2017-10-27T08:15:59.470Z,89.00
2017-10-27T08:18:27.793Z,88.80
2017-10-27T08:20:55.375Z,88.70
2017-10-27T08:23:22.914Z,90.00
2017-10-27T08:25:50.448Z,89.80
2017-10-27T08:28:18.051Z,88.80
2017-10-27T08:30:45.582Z,86.10
2017-10-27T08:33:13.882Z,84.60
2017-10-27T08:35:41.439Z,84.40
2017-10-27T08:38:09.031Z,83.50
2017-10-27T08:40:36.610Z,83.60
2017-10-27T08:43:06.903Z,84.20
2017-10-27T08:45:34.441Z,84.90
2017-10-27T08:48:02.039Z,84.70
2017-10-27T08:50:29.571Z,85.30
2017-10-27T08:52:57.137Z,85.10
2017-10-27T08:55:24.684Z,84.30
2017-10-27T08:57:52.222Z,85.10
2017-10-27T09:00:19.810Z,86.00
2017-10-27T09:02:47.339Z,86.50
2017-10-27T09:05:15.673Z,86.40
2017-10-27T09:07:43.237Z,85.60
2017-10-27T09:10:10.913Z,85.10
2017-10-27T09:12:38.464Z,84.60
2017-10-27T09:15:06.003Z,84.80
2017-10-27T09:17:34.335Z,84.70
2017-10-27T09:20:01.881Z,84.50
2017-10-27T09:22:30.135Z,83.90
2017-10-27T09:24:57.700Z,83.90
2017-10-27T09:27:25.245Z,83.50
2017-10-27T09:29:52.810Z,82.90
2017-10-27T09:32:20.354Z,84.00
2017-10-27T09:34:47.883Z,82.80
2017-10-27T09:37:15.423Z,83.60
2017-10-27T09:39:43.749Z,83.80
2017-10-27T09:42:11.313Z,83.80
2017-10-27T09:44:38.853Z,84.00
2017-10-27T09:47:06.384Z,83.90
2017-10-27T09:49:34.699Z,83.50
2017-10-27T09:52:02.236Z,83.30
2017-10-27T09:54:29.788Z,81.70
2017-10-27T09:56:57.315Z,81.10
2017-10-27T09:59:25.614Z,83.30
2017-10-27T10:01:53.179Z,83.40
2017-10-27T10:04:20.703Z,81.90
2017-10-27T10:06:48.263Z,81.20
2017-10-27T10:09:15.798Z,81.20
2017-10-27T10:11:43.364Z,78.20
2017-10-27T10:14:10.952Z,77.70
2017-10-27T10:16:39.250Z,78.80
2017-10-27T10:19:06.835Z,78.80
2017-10-27T10:21:34.367Z,79.60
2017-10-27T10:24:01.904Z,78.40
2017-10-27T10:26:30.233Z,70.30
2017-10-27T10:28:57.780Z,70.30
2017-10-27T10:31:25.343Z,72.00
2017-10-27T10:33:52.878Z,72.10
2017-10-27T10:36:20.421Z,72.40
2017-10-27T10:38:48.762Z,71.40
2017-10-27T10:41:16.298Z,71.40
2017-10-27T10:43:43.841Z,69.00
2017-10-27T10:46:11.422Z,70.00
2017-10-27T10:48:38.952Z,69.40
2017-10-27T10:51:06.455Z,68.90
2017-10-27T10:53:34.022Z,69.60
2017-10-27T10:56:01.549Z,69.00
2017-10-27T10:58:29.110Z,70.10
2017-10-27T11:00:56.651Z,70.40
2017-10-27T11:03:24.194Z,68.60
2017-10-27T11:05:51.808Z,66.90
2017-10-27T11:08:19.355Z,60.90
2017-10-27T11:10:46.947Z,60.80
2017-10-27T11:13:14.475Z,60.10
2017-10-27T11:15:42.020Z,57.50
2017-10-27T11:18:09.566Z,55.20
2017-10-27T11:20:37.345Z,54.30
2017-10-27T11:23:04.921Z,57.70
2017-10-27T11:25:32.454Z,57.50
2017-10-27T11:28:00.005Z,58.30
2017-10-27T11:30:28.324Z,58.70
2017-10-27T11:32:55.866Z,58.60
2017-10-27T11:35:23.471Z,55.80
2017-10-27T11:37:51.021Z,57.00
2017-10-27T11:40:18.680Z,56.90
2017-10-27T11:42:46.235Z,55.80
2017-10-27T11:45:14.075Z,50.70
2017-10-27T11:47:42.440Z,49.10
2017-10-27T11:50:11.643Z,51.70
2017-10-27T11:52:39.353Z,51.80
2017-10-27T11:55:06.932Z,52.40
2017-10-27T11:57:35.221Z,54.40
2017-10-27T12:00:04.909Z,58.30
2017-10-27T12:02:32.513Z,58.20
2017-10-27T12:05:00.084Z,61.90
2017-10-27T12:07:27.638Z,65.90
2017-10-27T12:09:55.201Z,68.90
2017-10-27T12:12:22.779Z,72.10
2017-10-27T12:14:50.314Z,73.10
2017-10-27T12:17:17.843Z,70.60
2017-10-27T12:19:46.187Z,68.00
2017-10-27T12:22:13.732Z,67.80
2017-10-27T12:24:41.330Z,63.60
2017-10-27T12:27:09.619Z,64.50
2017-10-27T12:29:37.171Z,63.90
2017-10-27T12:32:05.522Z,60.80
2017-10-27T12:34:33.109Z,60.70
2017-10-27T12:37:01.595Z,46.10
2017-10-27T12:39:29.945Z,46.00
2017-10-27T12:41:57.536Z,45.90
2017-10-27T12:44:25.916Z,37.80
2017-10-27T12:46:54.214Z,39.80
2017-10-27T12:49:21.745Z,39.80
2017-10-27T12:51:50.078Z,34.90
2017-10-27T12:54:18.237Z,34.80
2017-10-27T12:56:45.864Z,31.70
2017-10-27T12:59:14.174Z,35.10
2017-10-27T13:01:41.792Z,35.00
2017-10-27T13:04:10.172Z,49.20
2017-10-27T13:06:38.557Z,52.10
2017-10-27T13:09:07.016Z,53.10
2017-10-27T13:11:34.555Z,53.10
2017-10-27T13:14:02.108Z,55.70
2017-10-27T13:16:30.441Z,56.60
2017-10-27T13:18:58.828Z,51.50
2017-10-27T13:21:26.395Z,51.50
2017-10-27T13:23:53.988Z,46.80
2017-10-27T13:26:21.781Z,39.80
2017-10-27T13:28:49.699Z,43.10
2017-10-27T13:31:17.346Z,47.00
2017-10-27T13:33:44.953Z,50.20
2017-10-27T13:36:12.505Z,51.90
2017-10-27T13:38:40.082Z,54.70
2017-10-27T13:41:08.410Z,43.30
2017-10-27T13:43:35.996Z,36.00
2017-10-27T13:46:03.682Z,31.80
2017-10-27T13:48:31.332Z,29.40
2017-10-27T13:50:58.899Z,28.70
2017-10-27T13:53:26.485Z,29.50
2017-10-27T13:55:54.117Z,28.80
2017-10-27T13:58:22.864Z,28.20
2017-10-27T14:00:50.539Z,28.10
2017-10-27T14:03:18.169Z,28.20
2017-10-27T14:05:46.151Z,29.10
2017-10-27T14:08:13.693Z,28.90
2017-10-27T14:10:41.268Z,29.40
2017-10-27T14:13:08.816Z,33.00
2017-10-27T14:15:36.355Z,31.00
2017-10-27T14:18:04.717Z,30.30
2017-10-27T14:20:32.273Z,30.30
2017-10-27T14:22:59.849Z,30.50
2017-10-27T14:25:27.456Z,30.00
2017-10-27T14:27:55.002Z,33.30
2017-10-27T14:30:22.578Z,40.40
2017-10-27T14:32:50.136Z,40.70
2017-10-27T14:35:17.738Z,37.20
2017-10-27T14:37:45.272Z,34.10
2017-10-27T14:40:12.824Z,33.70
2017-10-27T14:42:40.400Z,34.30
2017-10-27T14:45:07.953Z,33.60
2017-10-27T14:47:35.520Z,33.80
2017-10-27T14:50:03.186Z,38.80
2017-10-27T14:52:30.731Z,44.20
2017-10-27T14:54:58.321Z,47.90
2017-10-27T14:57:25.867Z,50.50
2017-10-27T14:59:53.465Z,52.00
2017-10-27T15:02:21.018Z,53.30
2017-10-27T15:04:49.365Z,55.10
2017-10-27T15:07:16.931Z,55.10
2017-10-27T15:09:44.480Z,55.60
2017-10-27T15:12:12.693Z,56.40
2017-10-27T15:14:40.249Z,57.10
2017-10-27T15:17:08.578Z,58.00
2017-10-27T15:19:36.151Z,58.00
2017-10-27T15:22:03.700Z,58.00
2017-10-27T15:24:31.309Z,57.60
2017-10-27T15:26:58.898Z,58.40
2017-10-27T15:29:26.477Z,59.10
2017-10-27T15:31:54.852Z,59.70
2017-10-27T15:34:22.410Z,59.70
2017-10-27T15:36:49.992Z,62.70
2017-10-27T15:39:17.567Z,62.70
2017-10-27T15:41:45.930Z,66.90
2017-10-27T15:44:13.578Z,66.80
2017-10-27T15:46:41.152Z,65.70
2017-10-27T15:49:08.746Z,62.70
2017-10-27T15:51:36.294Z,64.80
2017-10-27T15:54:04.740Z,64.90
2017-10-27T15:56:32.355Z,64.90
2017-10-27T15:58:59.992Z,65.20
2017-10-27T16:01:28.335Z,64.00
2017-10-27T16:03:55.917Z,63.80
2017-10-27T16:06:23.498Z,64.10
2017-10-27T16:08:51.875Z,65.50
2017-10-27T16:11:20.204Z,66.10
2017-10-27T16:13:47.878Z,66.10
2017-10-27T16:16:16.216Z,66.40
2017-10-27T16:18:43.834Z,66.40
2017-10-27T16:21:11.463Z,67.50
2017-10-27T16:23:39.883Z,68.50
2017-10-27T16:26:08.246Z,68.50
2017-10-27T16:28:35.808Z,68.40
2017-10-27T16:31:03.367Z,68.40
2017-10-27T16:33:31.001Z,68.30
2017-10-27T16:35:58.642Z,69.30
2017-10-27T16:38:26.227Z,69.20
2017-10-27T16:40:53.834Z,69.00
2017-10-27T16:43:22.147Z,67.80
2017-10-27T16:45:49.729Z,67.70
2017-10-27T16:48:17.292Z,68.60
2017-10-27T16:50:44.876Z,69.90
2017-10-27T16:53:12.450Z,70.00
2017-10-27T16:55:40.789Z,69.70
2017-10-27T16:58:08.413Z,69.70
2017-10-27T17:00:36.073Z,69.30
2017-10-27T17:03:03.646Z,69.40
2017-10-27T17:05:31.180Z,70.30
2017-10-27T17:07:58.713Z,70.40
2017-10-27T17:10:26.322Z,71.40
2017-10-27T17:12:53.896Z,71.80
2017-10-27T17:15:21.474Z,72.30
2017-10-27T17:17:49.023Z,72.30
2017-10-27T17:20:16.591Z,72.30
2017-10-27T17:25:07.036Z,73.00
2017-10-27T17:27:35.397Z,72.20
2017-10-27T17:30:03.000Z,72.10
2017-10-27T17:32:30.531Z,72.30
2017-10-27T17:34:58.164Z,72.50
2017-10-27T17:37:25.736Z,72.30
2017-10-27T17:39:53.299Z,71.60
2017-10-27T17:42:21.618Z,70.30
2017-10-27T17:44:49.216Z,70.10
2017-10-27T17:47:16.768Z,70.20
2017-10-27T17:49:44.349Z,70.70
2017-10-27T17:52:11.908Z,71.40
2017-10-27T17:54:39.468Z,71.60
2017-10-27T17:57:07.029Z,71.50
2017-10-27T17:59:34.611Z,70.60
2017-10-27T18:02:02.945Z,70.80
2017-10-27T18:04:30.505Z,70.80
2017-10-27T18:06:58.072Z,70.50
2017-10-27T18:09:25.668Z,69.70
2017-10-27T18:11:53.984Z,70.50
2017-10-27T18:14:21.565Z,70.50
2017-10-27T18:16:49.100Z,70.50
2017-10-27T18:19:16.654Z,71.00
2017-10-27T18:21:44.391Z,70.60
2017-10-27T18:24:11.977Z,70.50
2017-10-27T18:26:39.609Z,70.10
2017-10-27T18:29:07.924Z,69.40
2017-10-27T18:31:35.486Z,69.30
2017-10-27T18:34:03.107Z,69.50
2017-10-27T18:36:31.467Z,69.90
2017-10-27T18:39:00.039Z,70.40
2017-10-27T18:41:27.629Z,70.30
2017-10-27T18:43:55.952Z,71.80
2017-10-27T18:46:23.594Z,71.80
2017-10-27T18:48:51.262Z,72.30
2017-10-27T18:51:18.897Z,72.10
2017-10-27T18:53:46.475Z,71.50
2017-10-27T18:56:14.074Z,70.30
2017-10-27T18:58:41.684Z,70.30
2017-10-27T19:01:09.317Z,69.70
2017-10-27T19:03:38.349Z,71.00
2017-10-27T19:06:05.925Z,71.00
2017-10-27T19:08:33.572Z,70.70
2017-10-27T19:11:01.157Z,71.30
2017-10-27T19:13:28.766Z,71.90
2017-10-27T19:15:57.159Z,73.00
2017-10-27T19:18:25.103Z,72.90
2017-10-27T19:20:52.713Z,73.60
2017-10-27T19:23:20.399Z,73.30
2017-10-27T19:25:47.978Z,73.00
2017-10-27T19:28:16.380Z,74.20
2017-10-27T19:30:43.975Z,73.80
2017-10-27T19:33:12.538Z,73.60
2017-10-27T19:35:40.152Z,73.50
2017-10-27T19:38:07.752Z,72.60
2017-10-27T19:40:35.472Z,72.70
2017-10-27T19:43:03.886Z,72.80
2017-10-27T19:45:32.209Z,72.50
2017-10-27T19:47:59.807Z,72.50
2017-10-27T19:50:28.148Z,72.70
2017-10-27T19:52:55.765Z,72.70
2017-10-27T19:55:23.346Z,72.80
2017-10-27T19:57:51.238Z,73.40
2017-10-27T20:00:18.888Z,73.10
2017-10-27T20:02:46.468Z,72.90
2017-10-27T20:05:14.076Z,72.70
2017-10-27T20:07:41.656Z,72.80
2017-10-27T20:10:09.255Z,72.80
2017-10-27T20:12:37.666Z,73.10
2017-10-27T20:15:05.979Z,72.30
2017-10-27T20:17:33.583Z,72.10
2017-10-27T20:20:01.225Z,71.30
2017-10-27T20:22:29.021Z,70.10
2017-10-27T20:24:57.397Z,72.80
2017-10-27T20:27:25.739Z,73.20
2017-10-27T20:29:53.461Z,73.10
2017-10-27T20:32:21.012Z,73.30
2017-10-27T20:34:49.320Z,73.10
2017-10-27T20:37:16.913Z,73.10
2017-10-27T20:39:44.538Z,73.60
2017-10-27T20:42:12.118Z,74.00
2017-10-27T20:44:39.706Z,74.20
2017-10-27T20:47:07.265Z,73.80
2017-10-27T20:49:34.920Z,74.00
2017-10-27T20:52:02.473Z,74.60
2017-10-27T20:54:30.055Z,73.80
2017-10-27T20:56:59.164Z,73.50
2017-10-27T20:59:27.496Z,73.20
2017-10-27T21:01:55.079Z,73.20
2017-10-27T21:04:22.633Z,72.90
2017-10-27T21:06:50.220Z,73.40
2017-10-27T21:09:18.532Z,72.30
2017-10-27T21:11:46.076Z,72.20
2017-10-27T21:14:13.644Z,72.20
2017-10-27T21:16:41.228Z,72.60
2017-10-27T21:19:08.812Z,72.50
2017-10-27T21:21:36.352Z,73.50
2017-10-27T21:24:03.917Z,72.90
2017-10-27T21:26:31.537Z,73.80
2017-10-27T21:28:59.114Z,74.20
2017-10-27T21:31:26.703Z,74.00
2017-10-27T21:33:54.255Z,75.40
2017-10-27T21:36:21.840Z,74.40
2017-10-27T21:38:50.187Z,74.20
2017-10-27T21:41:17.728Z,74.20
2017-10-27T21:43:45.323Z,74.80
2017-10-27T21:46:12.962Z,74.30
2017-10-27T21:48:40.484Z,75.20
2017-10-27T21:51:08.085Z,75.00
2017-10-27T21:53:35.680Z,74.70
2017-10-27T21:56:03.988Z,75.10
2017-10-27T21:58:31.573Z,75.10
2017-10-27T22:00:59.119Z,75.10
2017-10-27T22:03:26.778Z,75.00
2017-10-27T22:05:54.338Z,75.70
2017-10-27T22:08:21.897Z,76.30
2017-10-27T22:10:50.227Z,75.70
2017-10-27T22:13:17.772Z,76.30
2017-10-27T22:15:45.329Z,75.80
2017-10-27T22:18:12.969Z,75.10
2017-10-27T22:20:40.543Z,75.30
2017-10-27T22:23:08.120Z,76.20
2017-10-27T22:25:35.677Z,76.00
2017-10-27T22:28:03.245Z,76.50
